15 août 2022

Temps Code Temps Temp. Vue Base cloud Vent METAR/SPECI
02:00
V
20 °C 10 km+ - 350° 350° 7 kt METAR HUEN 142300 35007KT CAVOK 20/17 Q1015 NOSIG
01:00
V
20 °C 10 km+ - 330° 330° 5 kt METAR HUEN 142200 33005KT CAVOK 20/17 Q1016 NOSIG
00:00
V
21 °C 10 km+ - 320° 320° 5 kt METAR HUEN 142100 32005KT CAVOK 21/18 Q1017 NOSIG

14 août 2022

Temps Code Temps Temp. Vue Base cloud Vent METAR/SPECI
23:00
V
21 °C 10 km+ - 290° 290° 4 kt METAR HUEN 142000 29004KT CAVOK 21/17 Q1016 NOSIG
22:00
V
20 °C 10 km+ - 340° 340° 6 kt METAR HUEN 141900 34006KT 9999 FEW022 FEW026CB 20/17 Q1016 NOSIG
21:00
V
21 °C 10 km+ - 020° 020° 5 kt METAR HUEN 141800 02005KT 9999 FEW022 FEW025CB 21/17 Q1016 NOSIG
20:00
V
23 °C 10 km+ - 360° 360° 13 kt METAR HUEN 141700 36013KT 9999 FEW022 FEW024CB 23/17 Q1015 NOSIG
19:00
V
24 °C 10 km+ - 140° 140° 5 kt METAR HUEN 141600 14005KT 9999 FEW025CB 24/18 Q1014 NOSIG
18:30
V
25 °C 10 km+ - 140° 140° 8 kt METAR HUEN 141530 14008KT 9999 FEW023 FEW025CB 25/18 Q1013 NOSIG
18:00
V
26 °C 10 km+ - 170° 170° 9 kt METAR HUEN 141500 17009KT 9999 FEW024 FEW026CB 26/17 Q1013 NOSIG
17:00
V
26 °C 10 km+ - 150° 150° 7 kt METAR HUEN 141400 15007KT 9999 FEW024 FEW026CB 26/16 Q1013
16:30
V
27 °C 10 km+ - 160° 160° 8 kt METAR HUEN 141330Z 16008KT 9999 FEW024 FEW026CB 27/18 Q1013
16:00
V
27 °C 10 km+ - 140° 140° 10 kt METAR HUEN 141300 14010KT 9999 FEW024 FEW026CB 27/18 Q1013
15:00
V
27 °C 10 km+ - 170° 170° 9 kt METAR HUEN 141200 17009KT 9999 FEW024 FEW026CB 27/17 Q1014
14:30
V
27 °C 10 km+ - 200° 200° 8 kt METAR HUEN 141130 20008KT 9999 FEW024 FEW026CB 27/17 Q1015
14:00
V
26 °C 10 km+ - 200° 200° 7 kt METAR HUEN 141100 20007KT 9999 FEW023 FEW025CB 26/18 Q1015
13:00
V
26 °C 10 km+ - 190° 190° 9 kt METAR HUEN 141000 19009KT 9999 FEW023 FEW025CB 26/19 Q1017
12:00
V
26 °C 10 km+ - 240° 240° 4 kt METAR HUEN 140900 24004KT 9999 FEW023 FEW025CB 26/18 Q1017
11:00
V
25 °C 10 km+ - 290° 290° 3 kt METAR HUEN 140800 29003KT 9999 FEW022 FEW024CB 25/18 Q1017
10:30
V
24 °C 10 km+ - 310° 310° 7 kt METAR HUEN 140730 31007KT 9999 FEW022 FEW024CB 24/18 Q1018
10:00
V
23 °C 10 km+ - 300° 300° 7 kt METAR HUEN 140700 30007KT 9999 FEW021 FEW023CB 23/17 Q1018
09:30
V
22 °C 10 km+ - 300° 300° 5 kt METAR HUEN 140630Z 30005KT 9999 FEW020 FEW022CB 22/18 Q1018
09:00
V
22 °C 10 km+ - 360° 360° 5 kt METAR HUEN 140600 36005KT 9999 FEW020 FEW022CB 22/18 Q1018
08:00
V
21 °C 10 km+ - 260° 260° 5 kt METAR HUEN 140500 26005KT 9999 FEW019 FEW021CB 21/19 Q1017
07:00
V
19 °C 10 km+ - 280° 280° 4 kt METAR HUEN 140400 28004KT 9999 FEW017 FEW019CB 19/17 Q1016
06:30
V
19 °C 10 km+ - 350° 350° 3 kt METAR HUEN 140430 35003KT 9999 FEW017 FEW019CB 19/17 Q1016
06:00
V
19 °C 10 km+ - 320° 320° 5 kt METAR HUEN 140300Z 32005KT 9999 FEW017 FEW019CB 19/17 Q1016
05:30
V
19 °C 10 km+ - 360° 360° 3 kt METAR HUEN 140230Z 36003KT 9999 FEW017 FEW019CB 19/17 Q1016
05:00
V
19 °C 10 km+ - 320° 320° 5 kt METAR HUEN 140200 32005KT 9999 FEW017 FEW019CB 19/17 Q1016
04:30
V
19 °C 10 km+ - 320° 320° 5 kt METAR HUEN 140130Z 32005KT 9999 FEW018 FEW020CB 19/17 Q1016
03:00
V
20 °C 10 km+ - 310° 310° 6 kt METAR HUEN 140000 31006KT 9999 FEW018 FEW020CB 20/17 Q1016
01:00
V
20 °C 10 km+ - 350° 350° 10 kt METAR HUEN 132230 35010KT 9999 FEW018 FEW020CB 20/19 Q1017
00:00
V
21 °C 10 km+ - 020° 020° 5 kt METAR HUEN 132100 02005KT 9999 FEW018 FEW020CB 21/18 Q1018

13 août 2022

Temps Code Temps Temp. Vue Base cloud Vent METAR/SPECI
22:00
V
20 °C 10 km+ - 030° 030° 5 kt METAR HUEN 131900Z 03005KT 9999 FEW018 FEW020CB 20/19 Q1017
21:30
V
21 °C 10 km+ - Var 000° 0 kt METAR HUEN 131830Z 01004K0T 9999 FEW018 FEW020CB 21/19 Q1016
21:00
V
21 °C 10 km+ - 030° 030° 3 kt METAR HUEN 131800 03003KT 9999 FEW018 FEW020CB 21/19 Q1016
20:30
V
22 °C 10 km+ - 030° 030° 2 kt METAR HUEN 131730Z 03002KT 9999 FEW018 FEW020CB 22/19 Q1016
20:00
V
22 °C 10 km+ - 020° 020° 3 kt METAR HUEN 131700Z 02003KT 9999 FEW018 FEW020CB 22/19 Q1015
19:00
V
22 °C 10 km+ - 040° 040° 4 kt METAR HUEN 131600 04004KT 9999 FEW019 FEW021CB 22/19 Q1015
18:30
V
23 °C 10 km+ - 020° 020° 5 kt METAR HUEN 131530 02005KT 9999 FEW020 FEW022CB 23/19 Q1015
18:00
V
23 °C 10 km+ - 110° 110° 6 kt METAR HUEN 131500 11006KT 9999 FEW020 FEW022CB 23/19 Q1014
17:00
V
23 °C 10 km+ - 070° 070° 6 kt METAR HUEN 131400 07006KT 9999 FEW020 FEW022CB 23/20 Q1015 NOSIG
16:30
V
22 °C 10 km+ - 090° 090° 6 kt METAR HUEN 131330Z 09006KT 9999 FEW019 FEW021CB 22/20 Q1015 NOSIG
16:00
V
21 °C 10 km+ - 080° 080° 7 kt METAR HUEN 131300 08007KT 9999 FEW019 FEW021CB 21/20 Q1016 REDZ NOSIG
15:00
V
21 °C 10 km+ - 110° 110° 7 kt METAR HUEN 131230 11007KT 9999 DZ FEW019 FEW021CB 21/20 Q1015 NOSIG
14:00
V
20 °C 9 km - 090° 090° 12 kt METAR HUEN 131100 09012KT 9000 TSRA FEW020 FEW022CB 20/19 Q1017
13:00
M
23 °C 6 km - 020° 020° 15 kt METAR HUEN 131000 02015KT 6000 TSRA FEW022 FEW024CB 23/19 Q1018 NOSIG
12:00
V
26 °C 10 km+ - 290° 290° 5 kt METAR HUEN 130900Z 29005KT 9999 FEW022 FEW024CB 26/17 Q1018 NOSIG
11:30
V
25 °C 10 km+ - 330° 330° 4 kt METAR HUEN 130830Z 33004KT 9999 FEW022 FEW024CB 25/18 Q1018 NOSIG
11:00
V
25 °C 10 km+ - 360° 360° 10 kt METAR HUEN 130800Z 36010KT 9999 FEW021 FEW023CB 25/18 Q1018
10:30
V
25 °C 10 km+ - 360° 360° 13 kt METAR HUEN 130730Z 36013KT 9999 FEW021 FEW023CB 25/20 Q1018
10:00
V
23 °C 10 km+ - 010° 010° 13 kt METAR HUEN 130700Z 01013KT 9999 FEW020 FEW022CB 23/19 Q1018
09:30
V
23 °C 10 km+ - 350° 350° 12 kt METAR HUEN 130630Z 35012KT 9999 FEW020 FEW022CB 23/20 Q1018 NOSIG
09:00
V
23 °C 10 km+ - 360° 360° 12 kt METAR HUEN 130600Z 36012KT 9999 FEW020 FEW022CB SCT120 23/20 Q1017
08:30
V
21 °C 10 km+ - 360° 360° 10 kt METAR HUEN 130530Z 36010KT 9999 FEW019 FEW021CB SCT120 21/19 Q1017
08:00
V
21 °C 10 km+ 12.000 ft 340° 340° 8 kt METAR HUEN 130500Z 34008KT 9999 FEW019 FEW021CB BKN120 21/19 Q1016
07:30
V
20 °C 10 km+ 12.000 ft 360° 360° 7 kt METAR HUEN 130430Z 36007KT 9999 SCT019 FEW021CB BKN120 20/18 Q1016
07:00
V
20 °C 10 km+ 12.000 ft 340° 340° 10 kt METAR HUEN 130400Z 34010KT 9999 SCT018 FEW020CB BKN120 20/18 Q1016
06:30
V
20 °C 10 km+ 11.000 ft 340° 340° 9 kt METAR HUEN 130330Z 34009KT 9999 SCT018 FEW020CB BKN110 20/18 Q1016
05:30
V
21 °C 10 km+ - 360° 360° 7 kt METAR HUEN 130230Z 36007KT 9999 FEW020 FEW022CB 21/18 Q1015
05:00
V
21 °C 10 km+ - 010° 010° 10 kt METAR HUEN 130200Z 01010KT 9999 FEW020 FEW022CB 21/18 Q1015
03:30
V
21 °C 10 km+ - 360° 360° 8 kt METAR HUEN 130030Z 36008KT 9999 FEW021 FEW023CB 21/18 Q1015
03:00
V
21 °C 10 km+ - 030° 030° 4 kt METAR HUEN 130000Z 03004KT 9999 FEW022 FEW024CB 21/17 Q1015
02:00
V
22 °C 10 km+ - 360° 360° 6 kt METAR HUEN 122300Z 36006KT 9999 FEW022 FEW024CB 22/18 Q1016
01:00
V
22 °C 10 km+ - 360° 360° 5 kt METAR HUEN 122200Z 36005KT 9999 FEW022 FEW024CB 22/18 Q1016
00:30
V
22 °C 10 km+ - 340° 340° 4 kt METAR HUEN 122130Z 34004KT 9999 FEW022 FEW024CB 22/18 Q1016
00:00
V
22 °C 10 km+ - 310° 310° 7 kt METAR HUEN 122100Z 31007KT 9999 FEW022 FEW024CB 22/18 Q1016

12 août 2022

Temps Code Temps Temp. Vue Base cloud Vent METAR/SPECI
23:30
V
23 °C 10 km+ - 330° 330° 5 kt METAR HUEN 122030Z 33005KT 9999 FEW022 FEW024CB 23/18 Q1016
23:00
V
23 °C 10 km+ - 320° 320° 4 kt METAR HUEN 122000Z 32004KT 9999 FEW022 FEW024CB 23/18 Q1017
22:30
V
23 °C 10 km+ - 290° 290° 4 kt METAR HUEN 121930Z 29004KT 9999 FEW022 FEW024CB 23/19 Q1016
22:00
V
23 °C 10 km+ - 290° 290° 2 kt METAR HUEN 121900Z 29002KT 9999 FEW022 FEW024CB 23/19 Q1016
21:30
V
23 °C 10 km+ - 270° 270° 4 kt METAR HUEN 121830Z 27004KT 9999 FEW022 FEW024CB 23/18 Q1016
21:00
V
23 °C 10 km+ - 230° 230° 4 kt METAR HUEN 121800Z 23004KT 9999 FEW022 FEW024CB 23/18 Q1016
20:00
V
24 °C 10 km+ - 210° 210° 5 kt METAR HUEN 121700Z 21005KT 9999 FEW022 FEW024CB 24/18 Q1015
19:30
V
24 °C 10 km+ - 210° 210° 8 kt METAR HUEN 121630Z 21008KT 9999 FEW023 FEW025CB 24/18 Q1015
19:00
V
24 °C 10 km+ - 180° 180° 9 kt METAR HUEN 121600Z 18009KT 9999 FEW023 FEW025CB 24/18 Q1015
18:30
V
25 °C 10 km+ - 190° 190° 9 kt METAR HUEN 121530Z 19009KT 9999 FEW024 FEW026CB 25/18 Q1015
18:00
V
25 °C 10 km+ - 200° 200° 10 kt METAR HUEN 121500Z 20010KT 9999 FEW024 FEW026CB 25/19 Q1014
Données plus anciennes

Nous et des tiers suivons ton comportement sur Internet sur notre site Web à l'aide de cookies. Si tu continues, nous supposons que tu acceptes notre politique en matière de cookies. Apprendre plus